Frostproof, FL

4:43 AM EST on January 31, 2015 (GMT -0500)
FL_Meso Frostproof FAWN | Change Station
CLOSE
Current Station
Personal Weather Station
Location: Frostproof, FL
Elevation: 145 ft
Nearby Weather Stations

Elev 145 ft 27.76 °N, 81.54 °W | Updated 43 minutes ago

Clear
Clear
50.0 °F
Feels Like 47 °F
N
7.0
Wind Variable Wind from NNE

Today
High -- | Low -- °F
--% Chance of Precip.
Yesterday
High -- | Low -- °F
Precip. -- in
7:13 AM 6:05 PM
Waxing Gibbous, 88% visible
Pressure 30.24 in
Visibility 10.0 miles
Clouds Clear
Windchill 47 °F
Dew Point 44.0 °F
Humidity 80%
Rainfall -999.00 in
Snow Depth Not available.
UV 0 out of 12
Pollen 9.70 out of 12
Air Quality Not available.
Flu Activity Not available.
METAR KBOW 310935Z AUTO 02007KT 10SM CLR 09/02 A3024 RMK AO2

More Conditions Fewer Conditions

Pressure 30.24 in
Visibility 10.0 miles
Clouds Clear
Windchill 47 °F
Dew Point 44.0 °F
Humidity 80%
Rainfall -999.00 in
Snow Depth Not available.
UV 0 out of 12
Pollen 9.70 out of 12
Air Quality Not available.
Flu Activity Not available.
METAR KBOW 310935Z AUTO 02007KT 10SM CLR 09/02 A3024 RMK AO2

More Conditions Fewer Conditions

10-Day Weather Forecast

Almanac

Astronomy

Jan. 31, 2015 Rise Set
Actual Time
Civil Twilight
Nautical Twilight
Astronomical Twilight
Moon
Length of Visible Light
Length of Day
Tomorrow will be .
, % of the Moon is Illuminated

Today's Extremes

State Highs State Lows

Community

WunderPhotos

Upload Photos

1,792,021 photos uploaded!

WunderBlogs® & News

Nearby

Air Quality

  Air Quality AQ Index Pollutant
Not available.

Snow Depth

Station Depth Elevation

Earthquake Activity

City Distance Mag. Time & Date
Minimum magnitude displayed is 2.5.

Coastal Water Temperatures

Place Temperature

Nearby Weather Stations